Check out our new BloomSky Weather System.

Active alerts

Houston, TX
  Details for Houston, TX Dense Fog Advisory


Thunder radar  blitzortung!


Rain radar more information rain snow radar


Visit our other weather sites:

Template documentation
and downloads

And another site



Weather Underground History page Text

Daily Summary for August 5, 2017 Units:  English    Metric   Both
« Previous Day
Next Day »
Daily Weekly Monthly Yearly Custom
  High: Low: Average:
Temperature: 93.0 °F 74.5 °F 82.8 °F
Dew Point: 81.3 °F 73.0 °F 77 °F
Humidity: 97 % 62 % 83 %
Wind Speed: 13.0 mph 0.0 mph 2.4 mph
Wind Gust: 19.0 mph - -
Wind:- - SSE
Pressure: 30.00 in 29.88 in -
Precipitation: 0.28 in    
Historical Graphs
 
 
Tabular Data for August 5, 2017
Time Temperature Dew Point Pressure Wind Wind Speed Wind Gust Humidity Rainfall Rate (Hourly)
00:02 79.3 °F 74.8 °F 29.98 in Calm   2.0 mph 86 % 0.00 in
00:07 79.2 °F 74.7 °F 29.98 in Calm   1.0 mph 86 % 0.00 in
00:12 79.0 °F 74.5 °F 29.98 in Calm   1.0 mph 86 % 0.00 in
00:17 78.8 °F 74.3 °F 29.98 in Calm   1.0 mph 86 % 0.00 in
00:22 78.6 °F 74.1 °F 29.98 in Calm     86 % 0.00 in
00:27 78.4 °F 74.3 °F 29.98 in Calm     87 % 0.00 in
00:32 78.3 °F 74.1 °F 29.98 in Calm     87 % 0.00 in
00:37 78.1 °F 74.3 °F 29.98 in Calm     88 % 0.00 in
00:42 77.9 °F 74.1 °F 29.98 in Calm     88 % 0.00 in
00:47 77.5 °F 73.8 °F 29.98 in Calm     88 % 0.00 in
00:52 77.4 °F 73.6 °F 29.97 in Calm     88 % 0.00 in
00:57 77.4 °F 73.9 °F 29.98 in Calm     89 % 0.00 in
01:02 77.5 °F 74.3 °F 29.98 in Calm     90 % 0.00 in
01:07 77.5 °F 74.3 °F 29.98 in Calm     90 % 0.00 in
01:12 77.5 °F 74.3 °F 29.98 in Calm     90 % 0.00 in
01:17 77.5 °F 74.3 °F 29.98 in Calm     90 % 0.00 in
01:22 77.5 °F 74.3 °F 29.98 in Calm     90 % 0.00 in
01:27 77.4 °F 74.1 °F 29.98 in Calm     90 % 0.00 in
01:32 77.2 °F 73.9 °F 29.98 in Calm     90 % 0.00 in
01:37 76.8 °F 73.6 °F 29.97 in Calm     90 % 0.00 in
01:47 76.8 °F 73.9 °F 29.97 in Calm     91 % 0.00 in
01:52 76.6 °F 73.8 °F 29.97 in Calm     91 % 0.00 in
01:57 76.5 °F 73.6 °F 29.97 in Calm     91 % 0.00 in
02:02 76.3 °F 73.8 °F 29.97 in Calm     92 % 0.00 in
02:07 76.3 °F 73.8 °F 29.97 in Calm     92 % 0.00 in
02:12 76.3 °F 73.8 °F 29.96 in Calm     92 % 0.00 in
02:17 76.1 °F 73.6 °F 29.96 in Calm     92 % 0.00 in
02:19 75.9 °F 73.8 °F 29.96 in Calm     93 % 0.00 in
02:24 75.9 °F 73.8 °F 29.96 in Calm     93 % 0.00 in
02:29 76.1 °F 73.9 °F 29.96 in Calm     93 % 0.00 in
02:34 76.1 °F 73.9 °F 29.97 in Calm     93 % 0.00 in
02:39 75.9 °F 73.8 °F 29.97 in Calm     93 % 0.00 in
02:44 75.7 °F 73.6 °F 29.96 in Calm     93 % 0.00 in
02:49 75.9 °F 73.8 °F 29.97 in Calm     93 % 0.00 in
02:54 75.7 °F 73.6 °F 29.97 in Calm     93 % 0.00 in
02:59 75.6 °F 73.4 °F 29.97 in Calm     93 % 0.00 in
03:04 75.6 °F 73.8 °F 29.96 in Calm     94 % 0.00 in
03:09 75.4 °F 73.6 °F 29.96 in Calm     94 % 0.00 in
03:14 75.4 °F 73.6 °F 29.96 in Calm     94 % 0.00 in
03:19 75.4 °F 73.6 °F 29.96 in Calm     94 % 0.00 in
03:24 75.2 °F 73.4 °F 29.96 in Calm     94 % 0.00 in
03:29 75.2 °F 73.4 °F 29.96 in Calm     94 % 0.00 in
03:34 75.2 °F 73.4 °F 29.96 in Calm     94 % 0.00 in
03:39 75.2 °F 73.6 °F 29.96 in Calm     95 % 0.00 in
03:44 75.0 °F 73.4 °F 29.96 in Calm     95 % 0.00 in
03:49 75.0 °F 73.4 °F 29.96 in Calm     95 % 0.00 in
03:50 75.0 °F 73.4 °F 29.96 in Calm     95 % 0.00 in
03:55 74.8 °F 73.2 °F 29.96 in Calm     95 % 0.00 in
04:00 74.8 °F 73.2 °F 29.96 in Calm     95 % 0.00 in
04:05 74.8 °F 73.2 °F 29.96 in Calm     95 % 0.00 in
04:10 74.8 °F 73.2 °F 29.96 in Calm     95 % 0.00 in
04:16 74.8 °F 73.2 °F 29.96 in Calm     95 % 0.00 in
04:21 74.7 °F 73.2 °F 29.96 in Calm     95 % 0.00 in
04:26 74.5 °F 73.0 °F 29.96 in Calm     95 % 0.00 in
04:31 74.7 °F 73.2 °F 29.96 in Calm     95 % 0.00 in
04:36 74.7 °F 73.4 °F 29.97 in Calm     96 % 0.00 in
04:41 74.8 °F 73.6 °F 29.97 in Calm     96 % 0.00 in
04:46 74.8 °F 73.6 °F 29.97 in Calm     96 % 0.00 in
04:51 74.8 °F 73.6 °F 29.97 in Calm     96 % 0.00 in
04:56 74.8 °F 73.6 °F 29.97 in Calm     96 % 0.00 in
05:01 74.8 °F 73.6 °F 29.97 in Calm     96 % 0.00 in
05:06 74.8 °F 73.6 °F 29.97 in Calm     96 % 0.00 in
05:11 74.7 °F 73.4 °F 29.97 in Calm     96 % 0.00 in
05:16 74.7 °F 73.4 °F 29.97 in Calm     96 % 0.00 in
05:21 74.7 °F 73.4 °F 29.97 in Calm     96 % 0.00 in
05:26 74.7 °F 73.4 °F 29.97 in Calm     96 % 0.00 in
05:31 74.7 °F 73.4 °F 29.97 in Calm     96 % 0.00 in
05:36 74.8 °F 73.6 °F 29.97 in Calm     96 % 0.00 in
05:41 74.8 °F 73.6 °F 29.98 in Calm     96 % 0.00 in
05:46 74.7 °F 73.4 °F 29.98 in Calm     96 % 0.00 in
05:51 74.7 °F 73.4 °F 29.98 in Calm     96 % 0.00 in
05:56 74.7 °F 73.4 °F 29.98 in Calm     96 % 0.00 in
06:01 74.7 °F 73.4 °F 29.98 in Calm     96 % 0.00 in
06:06 74.7 °F 73.4 °F 29.98 in Calm     96 % 0.00 in
06:07 74.7 °F 73.4 °F 29.98 in Calm     96 % 0.00 in
06:12 74.7 °F 73.8 °F 29.98 in Calm     97 % 0.00 in
06:17 74.8 °F 73.9 °F 29.98 in Calm     97 % 0.00 in
06:22 74.7 °F 73.8 °F 29.98 in Calm     97 % 0.00 in
06:27 74.7 °F 73.8 °F 29.98 in Calm     97 % 0.00 in
06:32 74.7 °F 73.8 °F 29.98 in Calm     97 % 0.00 in
06:37 74.8 °F 73.9 °F 29.98 in Calm     97 % 0.00 in
06:42 74.7 °F 73.8 °F 29.98 in Calm     97 % 0.00 in
06:47 74.7 °F 73.8 °F 29.98 in Calm     97 % 0.00 in
06:52 74.8 °F 73.9 °F 29.98 in Calm     97 % 0.00 in
06:57 74.8 °F 73.9 °F 29.98 in Calm     97 % 0.00 in
07:02 75.0 °F 74.1 °F 29.99 in Calm     97 % 0.00 in
07:07 75.0 °F 74.1 °F 29.99 in Calm     97 % 0.00 in
07:12 75.4 °F 74.5 °F 29.99 in Calm     97 % 0.00 in
07:17 75.6 °F 74.7 °F 29.99 in Calm     97 % 0.00 in
07:22 75.7 °F 74.8 °F 29.99 in Calm     97 % 0.00 in
07:27 75.9 °F 75.0 °F 29.99 in Calm     97 % 0.00 in
07:32 76.5 °F 75.6 °F 29.99 in Calm     97 % 0.00 in
07:37 76.8 °F 75.9 °F 29.99 in Calm     97 % 0.00 in
07:42 77.4 °F 76.5 °F 29.99 in Calm     97 % 0.00 in
07:47 77.5 °F 76.6 °F 29.99 in Calm     97 % 0.00 in
07:52 78.1 °F 77.2 °F 29.99 in Calm   2.0 mph 97 % 0.00 in
07:57 78.6 °F 77.7 °F 29.99 in Calm   2.0 mph 97 % 0.00 in
08:02 79.3 °F 78.1 °F 29.99 in Calm   2.0 mph 96 % 0.00 in
08:08 79.9 °F 78.3 °F 29.99 in Calm   1.0 mph 95 % 0.00 in
08:12 80.2 °F 78.4 °F 29.99 in Calm   1.0 mph 94 % 0.00 in
08:17 80.8 °F 78.6 °F 30.00 in Calm   2.0 mph 93 % 0.00 in
08:23 81.1 °F 78.6 °F 30.00 in Calm   2.0 mph 92 % 0.00 in
08:28 81.7 °F 79.2 °F 30.00 in Calm   2.0 mph 92 % 0.00 in
08:33 82.2 °F 79.0 °F 30.00 in East 1.0 mph 2.0 mph 90 % 0.00 in
08:38 82.8 °F 79.2 °F 30.00 in ESE 1.0 mph 2.0 mph 89 % 0.00 in
08:43 83.5 °F 79.9 °F 30.00 in Calm   2.0 mph 89 % 0.00 in
08:48 83.8 °F 79.5 °F 30.00 in Calm   2.0 mph 87 % 0.00 in
08:53 84.4 °F 80.1 °F 30.00 in Calm   2.0 mph 87 % 0.00 in
08:58 84.9 °F 80.2 °F 30.00 in ESE 1.0 mph 2.0 mph 86 % 0.00 in
09:03 85.5 °F 80.4 °F 30.00 in Calm   3.0 mph 85 % 0.00 in
09:08 86.0 °F 81.0 °F 30.00 in South 2.0 mph 3.0 mph 85 % 0.00 in
09:13 86.4 °F 80.6 °F 30.00 in Calm   4.0 mph 83 % 0.00 in
09:18 86.7 °F 81.0 °F 30.00 in SE 3.0 mph 4.0 mph 83 % 0.00 in
09:23 86.7 °F 81.3 °F 30.00 in Calm   5.0 mph 84 % 0.00 in
09:28 87.1 °F 81.0 °F 30.00 in Calm   5.0 mph 82 % 0.00 in
09:33 87.1 °F 80.6 °F 29.99 in Calm   5.0 mph 81 % 0.00 in
09:38 87.1 °F 81.0 °F 29.99 in SSE 3.0 mph 3.0 mph 82 % 0.00 in
09:43 86.9 °F 80.4 °F 29.99 in SSW 2.0 mph 3.0 mph 81 % 0.00 in
09:48 86.4 °F 79.9 °F 29.99 in Calm   5.0 mph 81 % 0.00 in
09:53 86.4 °F 79.9 °F 29.99 in SSW 2.0 mph 5.0 mph 81 % 0.00 in
09:58 86.7 °F 80.2 °F 29.99 in Calm   5.0 mph 81 % 0.00 in
10:03 87.6 °F 81.1 °F 29.99 in SSE 3.0 mph 4.0 mph 81 % 0.00 in
10:08 87.8 °F 79.3 °F 29.99 in SE 7.0 mph 7.0 mph 76 % 0.00 in
10:13 88.2 °F 80.1 °F 29.99 in SSE 2.0 mph 8.0 mph 77 % 0.00 in
10:18 88.3 °F 79.0 °F 29.99 in South 4.0 mph 8.0 mph 74 % 0.00 in
10:23 88.7 °F 79.7 °F 29.99 in South 2.0 mph 8.0 mph 75 % 0.00 in
10:28 89.8 °F 80.8 °F 29.99 in East 3.0 mph 8.0 mph 75 % 0.00 in
10:33 90.1 °F 80.8 °F 29.99 in NNW 3.0 mph 8.0 mph 74 % 0.00 in
10:38 90.0 °F 80.6 °F 29.99 in North 2.0 mph 4.0 mph 74 % 0.00 in
10:43 89.4 °F 79.7 °F 29.99 in WNW 2.0 mph 4.0 mph 73 % 0.00 in
10:48 89.4 °F 79.7 °F 29.99 in Calm   4.0 mph 73 % 0.00 in
10:53 90.9 °F 81.0 °F 29.99 in Calm   4.0 mph 73 % 0.00 in
10:58 91.6 °F 80.4 °F 29.99 in SSE 1.0 mph 4.0 mph 70 % 0.00 in
11:03 91.2 °F 79.7 °F 29.99 in Calm   3.0 mph 69 % 0.00 in
11:08 90.9 °F 80.1 °F 29.99 in SSW 2.0 mph 5.0 mph 71 % 0.00 in
11:14 91.2 °F 80.4 °F 29.99 in Calm   5.0 mph 71 % 0.00 in
11:24 91.4 °F 78.8 °F 29.99 in SSW 4.0 mph 4.0 mph 67 % 0.00 in
11:29 90.3 °F 78.8 °F 29.98 in SSW 2.0 mph 5.0 mph 69 % 0.00 in
11:34 89.6 °F 79.0 °F 29.98 in SSW 1.0 mph 5.0 mph 71 % 0.00 in
11:39 89.8 °F 79.2 °F 29.98 in WNW 1.0 mph 5.0 mph 71 % 0.00 in
11:44 90.7 °F 78.6 °F 29.98 in SE 2.0 mph 5.0 mph 68 % 0.00 in
11:49 90.9 °F 77.5 °F 29.98 in ENE 2.0 mph 3.0 mph 65 % 0.00 in
11:54 90.9 °F 77.9 °F 29.98 in NNW 1.0 mph 5.0 mph 66 % 0.00 in
11:59 91.2 °F 77.7 °F 29.98 in Calm   5.0 mph 65 % 0.00 in
12:04 92.1 °F 78.6 °F 29.97 in Calm   5.0 mph 65 % 0.00 in
12:09 92.8 °F 80.2 °F 29.97 in ENE 2.0 mph 5.0 mph 67 % 0.00 in
12:14 93.0 °F 78.1 °F 29.97 in Calm   4.0 mph 62 % 0.00 in
12:19 92.5 °F 78.4 °F 29.97 in SE 3.0 mph 4.0 mph 64 % 0.00 in
12:24 91.9 °F 78.4 °F 29.97 in SSE 3.0 mph 5.0 mph 65 % 0.00 in
12:25 92.1 °F 78.6 °F 29.97 in SE 1.0 mph 5.0 mph 65 % 0.00 in
12:30 92.5 °F 78.4 °F 29.97 in SE 1.0 mph 5.0 mph 64 % 0.00 in
12:35 92.8 °F 79.3 °F 29.97 in South 1.0 mph 5.0 mph 65 % 0.00 in
12:40 93.0 °F 79.5 °F 29.97 in Calm   5.0 mph 65 % 0.00 in
12:41 93.0 °F 79.5 °F 29.97 in West 2.0 mph 5.0 mph 65 % 0.00 in
12:46 92.8 °F 78.8 °F 29.96 in Calm   5.0 mph 64 % 0.00 in
12:51 92.8 °F 78.4 °F 29.96 in ENE 1.0 mph 5.0 mph 63 % 0.00 in
12:56 92.5 °F 78.4 °F 29.96 in South 1.0 mph 5.0 mph 64 % 0.00 in
13:01 92.7 °F 78.3 °F 29.96 in SW 4.0 mph 5.0 mph 63 % 0.00 in
13:06 91.9 °F 78.1 °F 29.96 in SSE 2.0 mph 7.0 mph 64 % 0.00 in
13:11 91.8 °F 77.9 °F 29.96 in SE 1.0 mph 7.0 mph 64 % 0.00 in
13:16 91.8 °F 77.9 °F 29.96 in SSW 1.0 mph 7.0 mph 64 % 0.00 in
13:21 91.9 °F 78.1 °F 29.96 in ESE 2.0 mph 4.0 mph 64 % 0.00 in
13:26 91.6 °F 77.7 °F 29.97 in SSE 6.0 mph 7.0 mph 64 % 0.00 in
13:31 89.6 °F 77.2 °F 29.97 in SE 8.0 mph 18.0 mph 67 % 0.00 in
13:36 87.4 °F 77.4 °F 29.98 in SE 3.0 mph 19.0 mph 72 % 0.00 in
13:41 85.8 °F 77.0 °F 29.99 in South 13.0 mph 19.0 mph 75 % 0.00 in
13:46 83.7 °F 77.9 °F 29.99 in SSE 10.0 mph 19.0 mph 83 % 0.08 in
13:51 81.7 °F 77.7 °F 29.99 in SSE 5.0 mph 19.0 mph 88 % 0.20 in
13:56 79.9 °F 77.0 °F 29.98 in SSE 6.0 mph 17.0 mph 91 % 0.26 in
14:01 78.6 °F 76.1 °F 29.98 in ENE 7.0 mph 17.0 mph 92 % 0.28 in
14:06 78.1 °F 76.3 °F 29.98 in SE 9.0 mph 14.0 mph 94 % 0.28 in
14:11 77.7 °F 75.9 °F 29.98 in ESE 5.0 mph 14.0 mph 94 % 0.28 in
14:16 77.9 °F 76.6 °F 29.98 in SSE 2.0 mph 14.0 mph 96 % 0.28 in
14:21 77.5 °F 75.9 °F 29.98 in East 3.0 mph 13.0 mph 95 % 0.28 in
14:26 77.4 °F 75.7 °F 29.98 in Calm   10.0 mph 95 % 0.28 in
14:31 77.9 °F 76.6 °F 29.97 in Calm   9.0 mph 96 % 0.28 in
14:36 78.3 °F 77.0 °F 29.97 in NNW 1.0 mph 6.0 mph 96 % 0.28 in
14:41 78.4 °F 77.2 °F 29.96 in NNW 1.0 mph 5.0 mph 96 % 0.28 in
14:46 79.3 °F 78.4 °F 29.96 in NE 2.0 mph 5.0 mph 97 % 0.19 in
14:51 79.9 °F 78.3 °F 29.95 in SE 2.0 mph 5.0 mph 95 % 0.08 in
14:56 80.6 °F 78.6 °F 29.95 in SSE 4.0 mph 6.0 mph 94 % 0.02 in
15:01 81.5 °F 79.0 °F 29.95 in East 7.0 mph 7.0 mph 92 % 0.00 in
15:06 82.8 °F 79.2 °F 29.94 in East 4.0 mph 9.0 mph 89 % 0.00 in
15:11 83.7 °F 77.5 °F 29.94 in SE 6.0 mph 9.0 mph 82 % 0.00 in
15:17 84.4 °F 77.9 °F 29.94 in SE 6.0 mph 10.0 mph 81 % 0.00 in
15:22 84.9 °F 78.4 °F 29.94 in ESE 10.0 mph 10.0 mph 81 % 0.00 in
15:27 84.7 °F 77.9 °F 29.94 in SE 5.0 mph 13.0 mph 80 % 0.00 in
15:32 85.1 °F 78.3 °F 29.95 in SE 5.0 mph 13.0 mph 80 % 0.00 in
15:37 85.3 °F 78.4 °F 29.95 in SE 4.0 mph 13.0 mph 80 % 0.00 in
15:42 85.6 °F 78.4 °F 29.95 in East 8.0 mph 9.0 mph 79 % 0.00 in
15:47 85.6 °F 77.9 °F 29.94 in ESE 8.0 mph 11.0 mph 78 % 0.00 in
15:52 86.2 °F 78.1 °F 29.94 in SSE 6.0 mph 11.0 mph 77 % 0.00 in
15:57 86.5 °F 78.4 °F 29.94 in SE 6.0 mph 11.0 mph 77 % 0.00 in
16:02 86.4 °F 78.6 °F 29.93 in SE 4.0 mph 11.0 mph 78 % 0.00 in
16:07 86.7 °F 78.6 °F 29.93 in SE 7.0 mph 11.0 mph 77 % 0.00 in
16:12 87.4 °F 79.3 °F 29.93 in ESE 4.0 mph 11.0 mph 77 % 0.00 in
16:17 87.8 °F 79.7 °F 29.93 in South 5.0 mph 11.0 mph 77 % 0.00 in
16:22 88.2 °F 79.2 °F 29.94 in SE 9.0 mph 11.0 mph 75 % 0.00 in
16:27 88.2 °F 79.7 °F 29.93 in SE 3.0 mph 11.0 mph 76 % 0.00 in
16:32 88.7 °F 79.3 °F 29.93 in South 5.0 mph 11.0 mph 74 % 0.00 in
16:42 88.9 °F 78.6 °F 29.93 in SE 5.0 mph 11.0 mph 72 % 0.00 in
16:47 89.1 °F 78.8 °F 29.93 in SE 6.0 mph 11.0 mph 72 % 0.00 in
16:52 89.2 °F 79.0 °F 29.92 in SSE 2.0 mph 11.0 mph 72 % 0.00 in
16:57 89.4 °F 79.2 °F 29.92 in ESE 8.0 mph 11.0 mph 72 % 0.00 in
17:02 89.4 °F 78.8 °F 29.92 in SE 6.0 mph 10.0 mph 71 % 0.00 in
17:07 89.8 °F 79.5 °F 29.91 in SSE 5.0 mph 10.0 mph 72 % 0.00 in
17:12 90.1 °F 79.5 °F 29.92 in SSE 1.0 mph 10.0 mph 71 % 0.00 in
17:17 90.0 °F 78.8 °F 29.91 in SE 7.0 mph 10.0 mph 70 % 0.00 in
17:22 90.0 °F 79.3 °F 29.91 in ESE 5.0 mph 10.0 mph 71 % 0.00 in
17:27 90.0 °F 78.8 °F 29.91 in ESE 7.0 mph 12.0 mph 70 % 0.00 in
17:32 89.8 °F 78.6 °F 29.91 in SE 5.0 mph 14.0 mph 70 % 0.00 in
17:37 89.8 °F 79.2 °F 29.91 in East 9.0 mph 14.0 mph 71 % 0.00 in
17:42 89.8 °F 78.6 °F 29.91 in SE 7.0 mph 14.0 mph 70 % 0.00 in
17:47 89.6 °F 78.4 °F 29.91 in SSE 5.0 mph 13.0 mph 70 % 0.00 in
17:52 89.8 °F 79.2 °F 29.91 in SSW 10.0 mph 13.0 mph 71 % 0.00 in
17:57 89.8 °F 79.2 °F 29.91 in ESE 5.0 mph 13.0 mph 71 % 0.00 in
18:02 89.8 °F 79.2 °F 29.90 in ESE 4.0 mph 12.0 mph 71 % 0.00 in
18:07 90.0 °F 78.8 °F 29.90 in SE 5.0 mph 12.0 mph 70 % 0.00 in
18:12 90.0 °F 78.4 °F 29.90 in SSE 6.0 mph 12.0 mph 69 % 0.00 in
18:17 89.8 °F 78.3 °F 29.90 in SSW 4.0 mph 12.0 mph 69 % 0.00 in
18:22 89.8 °F 77.7 °F 29.90 in South 6.0 mph 12.0 mph 68 % 0.00 in
18:27 90.1 °F 77.7 °F 29.90 in SE 8.0 mph 12.0 mph 67 % 0.00 in
18:32 90.0 °F 77.9 °F 29.89 in East 7.0 mph 12.0 mph 68 % 0.00 in
18:37 90.0 °F 78.4 °F 29.89 in SE 6.0 mph 12.0 mph 69 % 0.00 in
18:47 89.8 °F 77.7 °F 29.89 in SSE 6.0 mph 11.0 mph 68 % 0.00 in
18:52 89.6 °F 78.4 °F 29.89 in ESE 8.0 mph 11.0 mph 70 % 0.00 in
18:57 89.4 °F 78.3 °F 29.89 in SSE 4.0 mph 11.0 mph 70 % 0.00 in
19:02 89.4 °F 78.3 °F 29.89 in ESE 5.0 mph 11.0 mph 70 % 0.00 in
19:07 89.2 °F 78.1 °F 29.89 in East 8.0 mph 11.0 mph 70 % 0.00 in
19:12 89.1 °F 78.4 °F 29.89 in ESE 7.0 mph 11.0 mph 71 % 0.00 in
19:17 88.7 °F 78.1 °F 29.89 in ESE 5.0 mph 11.0 mph 71 % 0.00 in
19:22 88.5 °F 77.9 °F 29.89 in SSE 9.0 mph 11.0 mph 71 % 0.00 in
19:27 88.2 °F 77.9 °F 29.88 in ESE 6.0 mph 11.0 mph 72 % 0.00 in
19:32 88.0 °F 77.9 °F 29.89 in SSE 11.0 mph 11.0 mph 72 % 0.00 in
19:37 87.6 °F 77.5 °F 29.89 in ESE 6.0 mph 12.0 mph 72 % 0.00 in
19:42 87.4 °F 77.7 °F 29.89 in SSE 2.0 mph 12.0 mph 73 % 0.00 in
19:47 87.3 °F 77.9 °F 29.89 in SE 6.0 mph 12.0 mph 74 % 0.00 in
19:52 87.1 °F 78.3 °F 29.89 in SE 5.0 mph 10.0 mph 75 % 0.00 in
19:57 86.7 °F 77.9 °F 29.89 in SE 3.0 mph 9.0 mph 75 % 0.00 in
20:02 86.7 °F 77.9 °F 29.89 in South 2.0 mph 9.0 mph 75 % 0.00 in
20:07 86.7 °F 77.9 °F 29.89 in SE 4.0 mph 9.0 mph 75 % 0.00 in
20:12 86.4 °F 77.5 °F 29.89 in SSW 4.0 mph 9.0 mph 75 % 0.00 in
20:17 86.2 °F 77.7 °F 29.89 in SSE 6.0 mph 9.0 mph 76 % 0.00 in
20:22 85.8 °F 77.4 °F 29.89 in SSW 5.0 mph 13.0 mph 76 % 0.00 in
20:27 85.6 °F 77.5 °F 29.89 in ESE 4.0 mph 13.0 mph 77 % 0.00 in
20:32 85.5 °F 77.7 °F 29.89 in SE 8.0 mph 13.0 mph 78 % 0.00 in
20:37 85.3 °F 77.7 °F 29.90 in SSE 8.0 mph 11.0 mph 78 % 0.00 in
20:42 85.1 °F 77.9 °F 29.90 in South 4.0 mph 9.0 mph 79 % 0.00 in
20:47 84.9 °F 77.7 °F 29.90 in ESE 7.0 mph 10.0 mph 79 % 0.00 in
20:52 84.7 °F 77.5 °F 29.90 in SSE 6.0 mph 10.0 mph 79 % 0.00 in
20:57 84.7 °F 77.9 °F 29.90 in South 3.0 mph 10.0 mph 80 % 0.00 in
21:02 84.6 °F 77.7 °F 29.90 in SSW 4.0 mph 9.0 mph 80 % 0.00 in
21:07 84.4 °F 77.5 °F 29.90 in South 5.0 mph 7.0 mph 80 % 0.00 in
21:12 84.2 °F 77.7 °F 29.90 in SE 4.0 mph 9.0 mph 81 % 0.00 in
21:17 84.0 °F 77.5 °F 29.90 in South 4.0 mph 9.0 mph 81 % 0.00 in
21:22 83.8 °F 77.7 °F 29.90 in SE 3.0 mph 9.0 mph 82 % 0.00 in
21:27 83.8 °F 77.7 °F 29.90 in SE 6.0 mph 9.0 mph 82 % 0.00 in
21:32 83.7 °F 77.5 °F 29.90 in SE 4.0 mph 9.0 mph 82 % 0.00 in
21:42 83.5 °F 77.7 °F 29.90 in SW 3.0 mph 7.0 mph 83 % 0.00 in
21:47 83.1 °F 77.7 °F 29.90 in South 4.0 mph 6.0 mph 84 % 0.00 in
21:52 83.1 °F 77.7 °F 29.91 in SSE 3.0 mph 6.0 mph 84 % 0.00 in
21:57 83.1 °F 77.7 °F 29.91 in SE 2.0 mph 6.0 mph 84 % 0.00 in
22:02 82.9 °F 77.9 °F 29.91 in SSE 2.0 mph 6.0 mph 85 % 0.00 in
22:07 82.8 °F 77.7 °F 29.91 in SSE 4.0 mph 6.0 mph 85 % 0.00 in
22:12 82.8 °F 77.7 °F 29.91 in South 4.0 mph 8.0 mph 85 % 0.00 in
22:17 82.8 °F 78.1 °F 29.91 in SE 2.0 mph 8.0 mph 86 % 0.00 in
22:22 82.8 °F 78.1 °F 29.91 in South 4.0 mph 8.0 mph 86 % 0.00 in
22:27 82.8 °F 78.1 °F 29.91 in SE 2.0 mph 8.0 mph 86 % 0.00 in
22:32 82.6 °F 77.9 °F 29.91 in SE 3.0 mph 8.0 mph 86 % 0.00 in
22:37 82.6 °F 77.9 °F 29.91 in SSE 2.0 mph 7.0 mph 86 % 0.00 in
22:42 82.6 °F 78.3 °F 29.91 in SE 4.0 mph 7.0 mph 87 % 0.00 in
22:47 82.4 °F 78.1 °F 29.91 in SSW 4.0 mph 7.0 mph 87 % 0.00 in
22:52 82.4 °F 78.1 °F 29.91 in SSW 5.0 mph 8.0 mph 87 % 0.00 in
22:57 82.4 °F 78.1 °F 29.91 in SE 1.0 mph 8.0 mph 87 % 0.00 in
23:02 82.2 °F 78.3 °F 29.91 in SSW 4.0 mph 8.0 mph 88 % 0.00 in
23:07 82.2 °F 78.3 °F 29.91 in South 6.0 mph 7.0 mph 88 % 0.00 in
23:12 82.2 °F 78.3 °F 29.91 in SE 5.0 mph 7.0 mph 88 % 0.00 in
23:17 82.0 °F 78.1 °F 29.91 in SSE 2.0 mph 7.0 mph 88 % 0.00 in
23:22 82.0 °F 78.4 °F 29.91 in SSW 4.0 mph 6.0 mph 89 % 0.00 in
23:27 81.9 °F 78.3 °F 29.91 in SSE 1.0 mph 6.0 mph 89 % 0.00 in
23:32 81.9 °F 78.3 °F 29.91 in Calm   5.0 mph 89 % 0.00 in
23:37 81.7 °F 78.1 °F 29.91 in SSE 2.0 mph 4.0 mph 89 % 0.00 in
23:42 81.7 °F 78.4 °F 29.91 in SE 2.0 mph 4.0 mph 90 % 0.00 in
23:47 81.7 °F 78.4 °F 29.91 in SE 1.0 mph 4.0 mph 90 % 0.00 in
23:52 81.3 °F 78.1 °F 29.91 in SSW 2.0 mph 3.0 mph 90 % 0.00 in
23:57 81.3 °F 78.4 °F 29.91 in SSE 3.0 mph 3.0 mph 91 % 0.00 in
Spring, Texas: Villages of Bridgestone
Compliments of Weather Underground - 2.75 mb

Script developed by  Jim McMurry - jmcmurry@mwt.net Adapted for the template by  Wim van der Kuil - Leuven-Template.eu

You find our weather info also at:

UK Metoffice

WeatherCloud

Weather Underground

Mid-South Weather Network

AWEKAS

Citizen Weather Observer Program (CWOP)

HAMweather, WeatherForYou, PWS Weather

Equipment we use:

Weather-station
Davis Vantage Vue

Weather-program
Meteohub

Weather-server
Debian 7.9 x86 (Guest)

Provider
DreamHost

Davis Vantage Vue

Meteohub

Debian 7.9 x86 (Guest)

DreamHost